Pagrindinis puslapis
METAR-TAF:

METAR-TAF

Oro uostai :

Madridas, Ispanija

platuma: 40-27N, ilguma: 003-33W, Aukštis: 609 m

Dabartinis oras

Ataskaita buvo paskelbta 37 minutes, ne 18:30 UTC
Vėjas 3 kt iš Šiaurės/Šiaurės Vakarų
Temperatūra 11°C
Drėgmė 87%
Slėgis 1028 hPa
Matomumas 10 km arba daugiau
Mažai debesys ne aukštis 4000 ft
Su prošvaistėmis ne aukštis 5000 ft

METAR: LEMD 171830Z 34003KT 9999 FEW040 BKN050 11/09 Q1028 NOSIG

Laikas: 20:07 (19:07 UTC)

Prognozė

Ataskaita buvo paskelbta 2 valandos ir 7 minutes, ne 17:00 UTC
Prognozė galioja nuo 17 metu 18 UTC su 18 metu 24 UTC
Vėjas 4 kt nuo kintamojo kryptimis
Matomumas 10 km arba daugiau
Mažai debesys ne aukštis 2500 ft
Su prošvaistėmis ne aukštis 5000 ft
Laikinai
nuo 17 metu 18 UTC su 17 metu 20 UTC
Vėjas 6 kt iš Vakarų/Šiaurės Vakarų
Tapsmas
nuo 17 metu 20 UTC su 17 metu 21 UTC
Vėjas 10 kt iš Šiaurės/Šiaurės Rytų
Mažai debesys ne aukštis 3500 ft

TAF: LEMD 171700Z 1718/1824 VRB04KT 9999 FEW025 BKN050 TX14/1815Z TN03/1806Z TEMPO 1718/1720 29006KT BECMG 1720/1721 02010KT FEW035

Orai ataskaitas ir orų prognozės (METAR, TAF).

turimą stotys yra geltonos ir raudonos taškus žemėlapyje.

Perkelti pele per norėdami pamatyti stoties vardą.

Tada spustelėkite, norėdami matyti oro stebėjimo ir prognozės.

Norėdami pakeisti žemėlapį: spustelėkite ant žalios mygtukų su juodo kryžiaus žemyn,; žalią mygtuką su brūkšneliu, jei norite nutolinti; arba žalių rodyklių gretimoms žemėlapius.


METAR-TAF: